sensor_id;sensor_type;location;lat;lon;timestamp;pressure;altitude;pressure_sealevel;temperature;humidity
55373;BME280;41249;47.838;16.490;2022-08-21T00:00:25;98844.69;;;15.18;100.00
55373;BME280;41249;47.838;16.490;2022-08-21T00:02:56;98840.84;;;15.38;100.00
55373;BME280;41249;47.838;16.490;2022-08-21T00:05:24;98848.16;;;15.25;100.00
55373;BME280;41249;47.838;16.490;2022-08-21T00:07:51;98856.22;;;15.18;100.00
55373;BME280;41249;47.838;16.490;2022-08-21T00:10:19;98840.81;;;15.14;100.00
55373;BME280;41249;47.838;16.490;2022-08-21T00:12:47;98834.13;;;15.29;100.00
55373;BME280;41249;47.838;16.490;2022-08-21T00:15:18;98825.38;;;15.16;100.00
55373;BME280;41249;47.838;16.490;2022-08-21T00:17:46;98846.34;;;15.19;100.00
55373;BME280;41249;47.838;16.490;2022-08-21T00:20:14;98832.81;;;15.14;100.00
55373;BME280;41249;47.838;16.490;2022-08-21T00:22:42;98833.72;;;15.26;100.00
55373;BME280;41249;47.838;16.490;2022-08-21T00:25:09;98820.19;;;15.21;100.00
55373;BME280;41249;47.838;16.490;2022-08-21T00:27:37;98806.31;;;15.30;100.00
55373;BME280;41249;47.838;16.490;2022-08-21T00:30:06;98807.13;;;15.31;100.00
55373;BME280;41249;47.838;16.490;2022-08-21T00:32:33;98803.97;;;15.16;100.00
55373;BME280;41249;47.838;16.490;2022-08-21T00:35:00;98812.75;;;15.23;100.00
55373;BME280;41249;47.838;16.490;2022-08-21T00:37:27;98802.06;;;15.23;100.00
55373;BME280;41249;47.838;16.490;2022-08-21T00:39:56;98815.84;;;15.20;100.00
55373;BME280;41249;47.838;16.490;2022-08-21T00:42:23;98818.38;;;15.15;100.00
55373;BME280;41249;47.838;16.490;2022-08-21T00:44:50;98804.72;;;15.23;100.00
55373;BME280;41249;47.838;16.490;2022-08-21T00:47:18;98823.69;;;15.21;100.00
55373;BME280;41249;47.838;16.490;2022-08-21T00:49:45;98812.97;;;15.21;100.00
55373;BME280;41249;47.838;16.490;2022-08-21T00:52:19;98806.81;;;15.21;100.00
55373;BME280;41249;47.838;16.490;2022-08-21T00:54:48;98820.78;;;15.23;100.00
55373;BME280;41249;47.838;16.490;2022-08-21T00:57:20;98810.09;;;15.23;100.00
55373;BME280;41249;47.838;16.490;2022-08-21T00:59:51;98827.56;;;15.25;100.00
55373;BME280;41249;47.838;16.490;2022-08-21T01:02:19;98815.25;;;15.18;100.00
55373;BME280;41249;47.838;16.490;2022-08-21T01:04:47;98824.50;;;15.22;100.00
55373;BME280;41249;47.838;16.490;2022-08-21T01:07:15;98825.91;;;15.24;100.00
55373;BME280;41249;47.838;16.490;2022-08-21T01:09:42;98812.91;;;15.28;100.00
55373;BME280;41249;47.838;16.490;2022-08-21T01:12:09;98808.44;;;15.22;100.00
55373;BME280;41249;47.838;16.490;2022-08-21T01:14:37;98811.38;;;15.14;100.00
55373;BME280;41249;47.838;16.490;2022-08-21T01:17:05;98807.72;;;15.33;100.00
55373;BME280;41249;47.838;16.490;2022-08-21T01:19:33;98808.78;;;15.32;100.00
55373;BME280;41249;47.838;16.490;2022-08-21T01:22:00;98798.84;;;15.39;100.00
55373;BME280;41249;47.838;16.490;2022-08-21T01:24:26;98796.03;;;15.27;100.00
55373;BME280;41249;47.838;16.490;2022-08-21T01:26:53;98784.38;;;15.47;100.00
55373;BME280;41249;47.838;16.490;2022-08-21T01:29:41;98780.69;;;15.41;100.00
55373;BME280;41249;47.838;16.490;2022-08-21T01:32:13;98786.03;;;15.41;100.00
55373;BME280;41249;47.838;16.490;2022-08-21T01:34:42;98788.44;;;15.24;100.00
55373;BME280;41249;47.838;16.490;2022-08-21T01:37:10;98783.22;;;15.36;100.00
55373;BME280;41249;47.838;16.490;2022-08-21T01:39:37;98779.28;;;15.14;100.00
55373;BME280;41249;47.838;16.490;2022-08-21T01:42:05;98783.69;;;15.26;100.00
55373;BME280;41249;47.838;16.490;2022-08-21T01:44:33;98777.16;;;15.22;100.00
55373;BME280;41249;47.838;16.490;2022-08-21T01:47:04;98784.84;;;15.37;100.00
55373;BME280;41249;47.838;16.490;2022-08-21T01:49:31;98769.66;;;15.31;100.00
55373;BME280;41249;47.838;16.490;2022-08-21T01:51:58;98760.63;;;15.25;100.00
55373;BME280;41249;47.838;16.490;2022-08-21T01:54:25;98768.44;;;15.27;100.00
55373;BME280;41249;47.838;16.490;2022-08-21T01:56:53;98761.22;;;15.27;100.00
55373;BME280;41249;47.838;16.490;2022-08-21T01:59:22;98758.09;;;15.37;100.00
55373;BME280;41249;47.838;16.490;2022-08-21T02:01:49;98752.72;;;15.37;100.00
55373;BME280;41249;47.838;16.490;2022-08-21T02:04:16;98764.13;;;15.26;100.00
55373;BME280;41249;47.838;16.490;2022-08-21T02:06:43;98752.03;;;15.48;100.00
55373;BME280;41249;47.838;16.490;2022-08-21T02:09:11;98747.50;;;15.42;100.00
55373;BME280;41249;47.838;16.490;2022-08-21T02:11:38;98756.34;;;15.49;100.00
55373;BME280;41249;47.838;16.490;2022-08-21T02:14:11;98761.34;;;15.39;100.00
55373;BME280;41249;47.838;16.490;2022-08-21T02:16:38;98753.59;;;15.31;100.00
55373;BME280;41249;47.838;16.490;2022-08-21T02:19:05;98736.41;;;15.45;100.00
55373;BME280;41249;47.838;16.490;2022-08-21T02:21:32;98735.97;;;15.48;100.00
55373;BME280;41249;47.838;16.490;2022-08-21T02:23:59;98730.91;;;15.33;100.00
55373;BME280;41249;47.838;16.490;2022-08-21T02:26:26;98738.28;;;15.45;100.00
55373;BME280;41249;47.838;16.490;2022-08-21T02:28:52;98733.72;;;15.45;100.00
55373;BME280;41249;47.838;16.490;2022-08-21T02:31:19;98737.72;;;15.36;100.00
55373;BME280;41249;47.838;16.490;2022-08-21T02:33:46;98728.41;;;15.38;100.00
55373;BME280;41249;47.838;16.490;2022-08-21T02:36:13;98737.47;;;15.37;100.00
55373;BME280;41249;47.838;16.490;2022-08-21T02:38:42;98733.72;;;15.45;100.00
55373;BME280;41249;47.838;16.490;2022-08-21T02:41:14;98731.66;;;15.41;100.00
55373;BME280;41249;47.838;16.490;2022-08-21T02:43:42;98728.84;;;15.35;100.00
55373;BME280;41249;47.838;16.490;2022-08-21T02:46:10;98732.78;;;15.33;100.00
55373;BME280;41249;47.838;16.490;2022-08-21T02:48:39;98728.78;;;15.42;100.00
55373;BME280;41249;47.838;16.490;2022-08-21T02:51:14;98737.47;;;15.37;100.00
55373;BME280;41249;47.838;16.490;2022-08-21T02:53:41;98711.81;;;15.30;100.00
55373;BME280;41249;47.838;16.490;2022-08-21T02:56:11;98724.91;;;15.38;100.00
55373;BME280;41249;47.838;16.490;2022-08-21T02:58:49;98729.50;;;15.31;100.00
55373;BME280;41249;47.838;16.490;2022-08-21T03:01:18;98735.41;;;15.15;100.00
55373;BME280;41249;47.838;16.490;2022-08-21T03:03:47;98722.16;;;15.20;100.00
55373;BME280;41249;47.838;16.490;2022-08-21T03:06:18;98727.06;;;15.29;100.00
55373;BME280;41249;47.838;16.490;2022-08-21T03:08:45;98725.25;;;15.23;100.00
55373;BME280;41249;47.838;16.490;2022-08-21T03:11:13;98723.56;;;15.29;100.00
55373;BME280;41249;47.838;16.490;2022-08-21T03:13:41;98729.38;;;15.19;100.00
55373;BME280;41249;47.838;16.490;2022-08-21T03:16:08;98718.25;;;15.22;100.00
55373;BME280;41249;47.838;16.490;2022-08-21T03:18:36;98710.44;;;15.21;100.00
55373;BME280;41249;47.838;16.490;2022-08-21T03:21:06;98721.75;;;15.23;100.00
55373;BME280;41249;47.838;16.490;2022-08-21T03:23:33;98712.09;;;15.22;100.00
55373;BME280;41249;47.838;16.490;2022-08-21T03:26:00;98723.06;;;15.14;100.00
55373;BME280;41249;47.838;16.490;2022-08-21T03:28:27;98716.28;;;15.11;100.00
55373;BME280;41249;47.838;16.490;2022-08-21T03:30:54;98715.19;;;15.19;100.00
55373;BME280;41249;47.838;16.490;2022-08-21T03:33:21;98721.56;;;15.18;100.00
55373;BME280;41249;47.838;16.490;2022-08-21T03:35:59;98706.56;;;15.17;100.00
55373;BME280;41249;47.838;16.490;2022-08-21T03:38:28;98706.09;;;15.20;100.00
55373;BME280;41249;47.838;16.490;2022-08-21T03:40:55;98721.97;;;15.21;100.00
55373;BME280;41249;47.838;16.490;2022-08-21T03:43:22;98717.28;;;15.17;100.00
55373;BME280;41249;47.838;16.490;2022-08-21T03:45:49;98727.69;;;15.25;100.00
55373;BME280;41249;47.838;16.490;2022-08-21T03:48:18;98729.56;;;15.24;100.00
55373;BME280;41249;47.838;16.490;2022-08-21T03:50:45;98731.09;;;15.14;100.00
55373;BME280;41249;47.838;16.490;2022-08-21T03:53:14;98744.22;;;15.22;100.00
55373;BME280;41249;47.838;16.490;2022-08-21T03:55:48;98734.97;;;15.18;100.00
55373;BME280;41249;47.838;16.490;2022-08-21T03:58:17;98747.75;;;15.16;100.00
55373;BME280;41249;47.838;16.490;2022-08-21T04:00:49;98754.56;;;15.11;100.00
55373;BME280;41249;47.838;16.490;2022-08-21T04:03:17;98760.78;;;15.05;100.00
55373;BME280;41249;47.838;16.490;2022-08-21T04:05:44;98751.81;;;14.93;100.00
55373;BME280;41249;47.838;16.490;2022-08-21T04:08:13;98762.84;;;15.03;100.00
55373;BME280;41249;47.838;16.490;2022-08-21T04:10:41;98758.59;;;14.96;100.00
55373;BME280;41249;47.838;16.490;2022-08-21T04:13:09;98766.50;;;15.16;100.00
55373;BME280;41249;47.838;16.490;2022-08-21T04:15:36;98776.06;;;14.98;100.00
55373;BME280;41249;47.838;16.490;2022-08-21T04:18:03;98772.84;;;15.21;100.00
55373;BME280;41249;47.838;16.490;2022-08-21T04:20:31;98781.28;;;15.18;100.00
55373;BME280;41249;47.838;16.490;2022-08-21T04:22:57;98783.81;;;15.38;100.00
55373;BME280;41249;47.838;16.490;2022-08-21T04:25:24;98797.63;;;15.35;100.00
55373;BME280;41249;47.838;16.490;2022-08-21T04:27:55;98798.06;;;15.32;100.00
55373;BME280;41249;47.838;16.490;2022-08-21T04:30:22;98805.16;;;15.20;100.00
55373;BME280;41249;47.838;16.490;2022-08-21T04:32:56;98810.38;;;15.08;100.00
55373;BME280;41249;47.838;16.490;2022-08-21T04:35:25;98805.97;;;15.20;100.00
55373;BME280;41249;47.838;16.490;2022-08-21T04:37:52;98820.84;;;15.16;100.00
55373;BME280;41249;47.838;16.490;2022-08-21T04:40:21;98798.16;;;15.19;100.00
55373;BME280;41249;47.838;16.490;2022-08-21T04:43:00;98826.19;;;15.41;100.00
55373;BME280;41249;47.838;16.490;2022-08-21T04:45:32;98838.81;;;15.34;100.00
55373;BME280;41249;47.838;16.490;2022-08-21T04:48:01;98835.88;;;15.42;100.00
55373;BME280;41249;47.838;16.490;2022-08-21T04:50:43;98841.38;;;15.22;100.00
55373;BME280;41249;47.838;16.490;2022-08-21T04:53:24;98839.84;;;15.33;100.00
55373;BME280;41249;47.838;16.490;2022-08-21T04:55:54;98854.81;;;15.16;100.00
55373;BME280;41249;47.838;16.490;2022-08-21T04:58:24;98851.69;;;15.19;100.00
55373;BME280;41249;47.838;16.490;2022-08-21T05:00:54;98861.63;;;15.11;100.00
55373;BME280;41249;47.838;16.490;2022-08-21T05:03:22;98859.56;;;15.14;100.00
55373;BME280;41249;47.838;16.490;2022-08-21T05:05:49;98865.25;;;15.24;100.00
55373;BME280;41249;47.838;16.490;2022-08-21T05:08:19;98859.13;;;15.17;100.00
55373;BME280;41249;47.838;16.490;2022-08-21T05:10:47;98860.75;;;15.18;100.00
55373;BME280;41249;47.838;16.490;2022-08-21T05:13:14;98862.69;;;15.04;100.00
55373;BME280;41249;47.838;16.490;2022-08-21T05:15:41;98862.41;;;15.19;100.00
55373;BME280;41249;47.838;16.490;2022-08-21T05:18:08;98857.28;;;14.79;100.00
55373;BME280;41249;47.838;16.490;2022-08-21T05:20:36;98863.63;;;15.23;100.00
55373;BME280;41249;47.838;16.490;2022-08-21T05:23:10;98868.63;;;15.06;100.00
55373;BME280;41249;47.838;16.490;2022-08-21T05:25:38;98876.03;;;15.10;100.00
55373;BME280;41249;47.838;16.490;2022-08-21T05:28:05;98871.88;;;15.21;100.00
55373;BME280;41249;47.838;16.490;2022-08-21T05:30:34;98862.75;;;15.29;100.00
55373;BME280;41249;47.838;16.490;2022-08-21T05:33:03;98860.63;;;15.44;100.00
55373;BME280;41249;47.838;16.490;2022-08-21T05:35:31;98863.91;;;15.46;100.00
55373;BME280;41249;47.838;16.490;2022-08-21T05:37:59;98844.88;;;15.54;100.00
55373;BME280;41249;47.838;16.490;2022-08-21T05:40:26;98855.44;;;15.74;100.00
55373;BME280;41249;47.838;16.490;2022-08-21T05:42:54;98852.38;;;15.96;100.00
55373;BME280;41249;47.838;16.490;2022-08-21T05:45:24;98846.50;;;16.05;100.00
55373;BME280;41249;47.838;16.490;2022-08-21T05:48:22;98846.81;;;16.15;100.00
55373;BME280;41249;47.838;16.490;2022-08-21T05:50:50;98859.22;;;16.35;100.00
55373;BME280;41249;47.838;16.490;2022-08-21T05:53:19;98857.41;;;16.29;100.00
55373;BME280;41249;47.838;16.490;2022-08-21T05:55:47;98853.72;;;16.66;100.00
55373;BME280;41249;47.838;16.490;2022-08-21T05:58:19;98849.69;;;16.39;100.00
55373;BME280;41249;47.838;16.490;2022-08-21T06:00:47;98848.81;;;16.20;100.00
55373;BME280;41249;47.838;16.490;2022-08-21T06:03:23;98848.97;;;16.25;100.00
55373;BME280;41249;47.838;16.490;2022-08-21T06:05:51;98847.16;;;16.44;100.00
55373;BME280;41249;47.838;16.490;2022-08-21T06:08:19;98841.88;;;16.37;100.00
55373;BME280;41249;47.838;16.490;2022-08-21T06:10:47;98852.19;;;16.15;100.00
55373;BME280;41249;47.838;16.490;2022-08-21T06:13:15;98839.03;;;16.07;100.00
55373;BME280;41249;47.838;16.490;2022-08-21T06:15:42;98841.94;;;16.31;100.00
55373;BME280;41249;47.838;16.490;2022-08-21T06:18:09;98847.00;;;16.39;100.00
55373;BME280;41249;47.838;16.490;2022-08-21T06:20:37;98853.09;;;16.28;100.00
55373;BME280;41249;47.838;16.490;2022-08-21T06:23:04;98839.72;;;16.46;100.00
55373;BME280;41249;47.838;16.490;2022-08-21T06:25:31;98824.63;;;16.27;100.00
55373;BME280;41249;47.838;16.490;2022-08-21T06:28:09;98835.41;;;16.45;100.00
55373;BME280;41249;47.838;16.490;2022-08-21T06:30:38;98834.16;;;16.78;100.00
55373;BME280;41249;47.838;16.490;2022-08-21T06:33:05;98837.53;;;16.73;100.00
55373;BME280;41249;47.838;16.490;2022-08-21T06:35:33;98836.91;;;16.89;100.00
55373;BME280;41249;47.838;16.490;2022-08-21T06:38:00;98832.75;;;17.05;100.00
55373;BME280;41249;47.838;16.490;2022-08-21T06:40:28;98835.00;;;17.08;100.00
55373;BME280;41249;47.838;16.490;2022-08-21T06:42:56;98842.97;;;17.15;100.00
55373;BME280;41249;47.838;16.490;2022-08-21T06:45:24;98830.88;;;17.06;100.00
55373;BME280;41249;47.838;16.490;2022-08-21T06:47:53;98834.94;;;16.96;100.00
55373;BME280;41249;47.838;16.490;2022-08-21T06:50:20;98832.19;;;17.33;100.00
55373;BME280;41249;47.838;16.490;2022-08-21T06:52:47;98831.19;;;17.16;100.00
55373;BME280;41249;47.838;16.490;2022-08-21T06:55:14;98821.69;;;17.67;100.00
55373;BME280;41249;47.838;16.490;2022-08-21T06:57:49;98823.97;;;18.05;100.00
55373;BME280;41249;47.838;16.490;2022-08-21T07:00:18;98816.22;;;17.85;100.00
55373;BME280;41249;47.838;16.490;2022-08-21T07:02:45;98813.31;;;18.22;100.00
55373;BME280;41249;47.838;16.490;2022-08-21T07:05:12;98819.16;;;18.07;100.00
55373;BME280;41249;47.838;16.490;2022-08-21T07:07:44;98845.91;;;17.78;100.00
55373;BME280;41249;47.838;16.490;2022-08-21T07:10:13;98817.38;;;18.24;100.00
55373;BME280;41249;47.838;16.490;2022-08-21T07:12:47;98827.22;;;17.83;100.00
55373;BME280;41249;47.838;16.490;2022-08-21T07:15:16;98822.91;;;17.82;100.00
55373;BME280;41249;47.838;16.490;2022-08-21T07:17:43;98815.91;;;17.93;100.00
55373;BME280;41249;47.838;16.490;2022-08-21T07:20:09;98827.47;;;17.94;100.00
55373;BME280;41249;47.838;16.490;2022-08-21T07:22:40;98831.25;;;17.39;100.00
55373;BME280;41249;47.838;16.490;2022-08-21T07:25:07;98812.03;;;18.01;100.00
55373;BME280;41249;47.838;16.490;2022-08-21T07:27:34;98810.97;;;18.14;100.00
55373;BME280;41249;47.838;16.490;2022-08-21T07:30:01;98816.00;;;17.87;100.00
55373;BME280;41249;47.838;16.490;2022-08-21T07:32:28;98829.00;;;17.90;100.00
55373;BME280;41249;47.838;16.490;2022-08-21T07:34:54;98826.06;;;17.91;100.00
55373;BME280;41249;47.838;16.490;2022-08-21T07:37:21;98829.19;;;17.76;100.00
55373;BME280;41249;47.838;16.490;2022-08-21T07:39:48;98812.84;;;18.13;100.00
55373;BME280;41249;47.838;16.490;2022-08-21T07:42:16;98810.13;;;18.25;100.00
55373;BME280;41249;47.838;16.490;2022-08-21T07:44:43;98820.59;;;17.98;100.00
55373;BME280;41249;47.838;16.490;2022-08-21T07:47:10;98817.13;;;18.37;100.00
55373;BME280;41249;47.838;16.490;2022-08-21T07:49:37;98827.50;;;18.57;100.00
55373;BME280;41249;47.838;16.490;2022-08-21T07:52:04;98810.03;;;18.60;100.00
55373;BME280;41249;47.838;16.490;2022-08-21T07:54:30;98805.03;;;18.52;100.00
55373;BME280;41249;47.838;16.490;2022-08-21T07:57:00;98805.72;;;18.59;100.00
55373;BME280;41249;47.838;16.490;2022-08-21T07:59:27;98802.50;;;18.85;100.00
55373;BME280;41249;47.838;16.490;2022-08-21T08:01:54;98814.28;;;18.56;100.00
55373;BME280;41249;47.838;16.490;2022-08-21T08:04:21;98809.63;;;18.51;100.00
55373;BME280;41249;47.838;16.490;2022-08-21T08:06:52;98818.44;;;18.23;100.00
55373;BME280;41249;47.838;16.490;2022-08-21T08:09:19;98801.91;;;18.55;100.00
55373;BME280;41249;47.838;16.490;2022-08-21T08:11:46;98798.16;;;18.44;100.00
55373;BME280;41249;47.838;16.490;2022-08-21T08:14:12;98800.47;;;18.64;100.00
55373;BME280;41249;47.838;16.490;2022-08-21T08:16:39;98809.16;;;18.54;100.00
55373;BME280;41249;47.838;16.490;2022-08-21T08:19:06;98828.06;;;18.19;100.00
55373;BME280;41249;47.838;16.490;2022-08-21T08:21:33;98822.44;;;17.86;100.00
55373;BME280;41249;47.838;16.490;2022-08-21T08:24:00;98824.88;;;18.22;100.00
55373;BME280;41249;47.838;16.490;2022-08-21T08:26:45;98815.53;;;18.13;100.00
55373;BME280;41249;47.838;16.490;2022-08-21T08:29:21;98830.03;;;17.89;100.00
55373;BME280;41249;47.838;16.490;2022-08-21T08:31:47;98813.47;;;18.03;100.00
55373;BME280;41249;47.838;16.490;2022-08-21T08:34:14;98825.19;;;18.37;100.00
55373;BME280;41249;47.838;16.490;2022-08-21T08:36:51;98770.06;;;17.76;100.00
55373;BME280;41249;47.838;16.490;2022-08-21T08:39:18;98847.56;;;17.38;100.00
55373;BME280;41249;47.838;16.490;2022-08-21T08:42:06;98834.66;;;17.58;100.00
55373;BME280;41249;47.838;16.490;2022-08-21T08:45:09;98830.28;;;18.10;100.00
55373;BME280;41249;47.838;16.490;2022-08-21T08:47:44;98807.59;;;17.95;100.00
55373;BME280;41249;47.838;16.490;2022-08-21T08:50:22;98836.94;;;18.08;100.00
55373;BME280;41249;47.838;16.490;2022-08-21T08:53:17;98828.75;;;18.15;100.00
55373;BME280;41249;47.838;16.490;2022-08-21T08:55:48;98836.75;;;18.50;100.00
55373;BME280;41249;47.838;16.490;2022-08-21T08:58:44;98828.50;;;18.28;100.00
55373;BME280;41249;47.838;16.490;2022-08-21T09:01:16;98814.13;;;18.22;100.00
55373;BME280;41249;47.838;16.490;2022-08-21T09:03:45;98817.38;;;18.24;100.00
55373;BME280;41249;47.838;16.490;2022-08-21T09:06:42;98812.28;;;18.11;100.00
55373;BME280;41249;47.838;16.490;2022-08-21T09:09:31;98821.50;;;18.15;100.00
55373;BME280;41249;47.838;16.490;2022-08-21T09:12:11;98820.63;;;18.38;100.00
55373;BME280;41249;47.838;16.490;2022-08-21T09:27:48;98816.47;;;17.83;100.00
55373;BME280;41249;47.838;16.490;2022-08-21T09:30:15;98824.31;;;18.20;100.00
55373;BME280;41249;47.838;16.490;2022-08-21T09:32:42;98826.19;;;18.20;100.00
55373;BME280;41249;47.838;16.490;2022-08-21T09:35:20;98822.16;;;17.52;100.00
55373;BME280;41249;47.838;16.490;2022-08-21T09:37:55;98812.41;;;17.93;100.00
55373;BME280;41249;47.838;16.490;2022-08-21T09:40:57;98803.16;;;18.12;100.00
55373;BME280;41249;47.838;16.490;2022-08-21T09:43:24;98780.69;;;18.18;100.00
55373;BME280;41249;47.838;16.490;2022-08-21T09:46:11;98793.66;;;18.21;100.00
55373;BME280;41249;47.838;16.490;2022-08-21T09:48:41;98787.59;;;18.66;100.00
55373;BME280;41249;47.838;16.490;2022-08-21T09:51:13;98788.13;;;18.39;100.00
55373;BME280;41249;47.838;16.490;2022-08-21T09:56:36;98770.13;;;18.40;100.00
55373;BME280;41249;47.838;16.490;2022-08-21T09:59:28;98771.16;;;18.39;100.00
55373;BME280;41249;47.838;16.490;2022-08-21T10:04:50;98780.28;;;18.38;100.00
55373;BME280;41249;47.838;16.490;2022-08-21T10:07:20;98774.50;;;19.15;100.00
55373;BME280;41249;47.838;16.490;2022-08-21T10:09:59;98786.75;;;18.25;100.00
55373;BME280;41249;47.838;16.490;2022-08-21T10:12:36;98815.25;;;18.61;100.00
55373;BME280;41249;47.838;16.490;2022-08-21T10:15:23;98771.56;;;18.59;100.00
55373;BME280;41249;47.838;16.490;2022-08-21T10:18:45;98771.34;;;18.89;100.00
55373;BME280;41249;47.838;16.490;2022-08-21T10:29:07;98774.31;;;19.05;100.00
55373;BME280;41249;47.838;16.490;2022-08-21T10:37:11;98789.09;;;18.33;100.00
55373;BME280;41249;47.838;16.490;2022-08-21T10:42:46;98801.59;;;18.28;100.00
55373;BME280;41249;47.838;16.490;2022-08-21T10:48:05;98807.50;;;16.94;100.00
55373;BME280;41249;47.838;16.490;2022-08-21T10:50:55;98811.75;;;17.02;100.00
55373;BME280;41249;47.838;16.490;2022-08-21T10:56:01;98800.47;;;17.23;100.00
55373;BME280;41249;47.838;16.490;2022-08-21T10:58:31;98807.53;;;17.24;100.00
55373;BME280;41249;47.838;16.490;2022-08-21T11:01:11;98796.81;;;17.48;100.00
55373;BME280;41249;47.838;16.490;2022-08-21T11:03:43;98797.84;;;17.58;100.00
55373;BME280;41249;47.838;16.490;2022-08-21T11:06:18;98789.13;;;17.63;100.00
55373;BME280;41249;47.838;16.490;2022-08-21T11:08:49;98786.31;;;17.81;100.00
55373;BME280;41249;47.838;16.490;2022-08-21T11:11:39;98798.00;;;17.75;100.00
55373;BME280;41249;47.838;16.490;2022-08-21T11:17:19;98802.78;;;17.73;100.00
55373;BME280;41249;47.838;16.490;2022-08-21T11:19:53;98794.69;;;17.50;100.00
55373;BME280;41249;47.838;16.490;2022-08-21T11:22:26;98785.03;;;17.96;100.00
55373;BME280;41249;47.838;16.490;2022-08-21T11:25:17;98768.91;;;18.07;100.00
55373;BME280;41249;47.838;16.490;2022-08-21T11:27:52;98780.53;;;18.25;100.00
55373;BME280;41249;47.838;16.490;2022-08-21T11:46:20;98800.84;;;17.27;100.00
55373;BME280;41249;47.838;16.490;2022-08-21T11:51:47;98797.38;;;16.96;100.00
55373;BME280;41249;47.838;16.490;2022-08-21T11:56:48;98805.00;;;16.81;100.00
55373;BME280;41249;47.838;16.490;2022-08-21T11:59:37;98804.84;;;17.06;100.00
55373;BME280;41249;47.838;16.490;2022-08-21T12:02:13;98801.34;;;17.36;100.00
55373;BME280;41249;47.838;16.490;2022-08-21T12:04:47;98792.44;;;17.23;100.00
55373;BME280;41249;47.838;16.490;2022-08-21T12:07:42;98795.19;;;17.82;100.00
55373;BME280;41249;47.838;16.490;2022-08-21T12:10:18;98793.47;;;18.11;100.00
55373;BME280;41249;47.838;16.490;2022-08-21T12:12:48;98794.47;;;18.33;100.00
55373;BME280;41249;47.838;16.490;2022-08-21T12:18:05;98780.59;;;18.65;100.00
55373;BME280;41249;47.838;16.490;2022-08-21T12:23:16;98786.69;;;18.89;100.00
55373;BME280;41249;47.838;16.490;2022-08-21T12:26:00;98794.03;;;18.93;100.00
55373;BME280;41249;47.838;16.490;2022-08-21T12:28:29;98800.75;;;18.39;100.00
55373;BME280;41249;47.838;16.490;2022-08-21T12:30:57;98787.03;;;18.64;100.00
55373;BME280;41249;47.838;16.490;2022-08-21T12:33:28;98797.97;;;18.22;100.00
55373;BME280;41249;47.838;16.490;2022-08-21T12:36:17;98799.75;;;18.97;100.00
55373;BME280;41249;47.838;16.490;2022-08-21T12:38:51;98794.97;;;18.99;100.00
55373;BME280;41249;47.838;16.490;2022-08-21T12:41:24;98793.09;;;18.59;100.00
55373;BME280;41249;47.838;16.490;2022-08-21T12:43:57;98786.09;;;18.87;100.00
55373;BME280;41249;47.838;16.490;2022-08-21T12:46:31;98788.66;;;18.65;100.00
55373;BME280;41249;47.838;16.490;2022-08-21T12:49:12;98792.88;;;18.89;100.00
55373;BME280;41249;47.838;16.490;2022-08-21T12:51:55;98789.97;;;18.91;100.00
55373;BME280;41249;47.838;16.490;2022-08-21T12:54:28;98801.06;;;19.11;100.00
55373;BME280;41249;47.838;16.490;2022-08-21T12:57:00;98804.22;;;18.51;100.00
55373;BME280;41249;47.838;16.490;2022-08-21T12:59:28;98796.91;;;18.75;100.00
55373;BME280;41249;47.838;16.490;2022-08-21T13:01:56;98792.31;;;18.47;100.00
55373;BME280;41249;47.838;16.490;2022-08-21T13:04:37;98796.72;;;18.65;100.00
55373;BME280;41249;47.838;16.490;2022-08-21T13:07:09;98803.72;;;17.79;100.00
55373;BME280;41249;47.838;16.490;2022-08-21T13:09:49;98811.09;;;18.07;100.00
55373;BME280;41249;47.838;16.490;2022-08-21T13:12:17;98812.16;;;17.17;100.00
55373;BME280;41249;47.838;16.490;2022-08-21T13:14:46;98807.53;;;17.24;100.00
55373;BME280;41249;47.838;16.490;2022-08-21T13:17:16;98808.94;;;17.39;100.00
55373;BME280;41249;47.838;16.490;2022-08-21T13:20:00;98819.66;;;17.27;100.00
55373;BME280;41249;47.838;16.490;2022-08-21T13:22:29;98809.59;;;17.22;100.00
55373;BME280;41249;47.838;16.490;2022-08-21T13:25:01;98816.50;;;17.00;100.00
55373;BME280;41249;47.838;16.490;2022-08-21T13:27:33;98823.41;;;16.96;100.00
55373;BME280;41249;47.838;16.490;2022-08-21T13:30:18;98827.41;;;16.87;100.00
55373;BME280;41249;47.838;16.490;2022-08-21T13:32:54;98824.13;;;17.03;100.00
55373;BME280;41249;47.838;16.490;2022-08-21T13:35:29;98829.03;;;17.06;100.00
55373;BME280;41249;47.838;16.490;2022-08-21T13:37:58;98817.53;;;17.17;100.00
55373;BME280;41249;47.838;16.490;2022-08-21T13:40:49;98833.00;;;17.34;100.00
55373;BME280;41249;47.838;16.490;2022-08-21T13:43:20;98826.53;;;17.23;100.00
55373;BME280;41249;47.838;16.490;2022-08-21T13:45:50;98833.81;;;17.04;100.00
55373;BME280;41249;47.838;16.490;2022-08-21T13:48:18;98820.38;;;17.34;100.00
55373;BME280;41249;47.838;16.490;2022-08-21T13:50:46;98821.72;;;17.13;100.00
55373;BME280;41249;47.838;16.490;2022-08-21T13:55:55;98823.78;;;17.41;100.00
55373;BME280;41249;47.838;16.490;2022-08-21T13:58:32;98829.19;;;16.93;100.00
55373;BME280;41249;47.838;16.490;2022-08-21T14:01:00;98823.03;;;17.22;100.00
55373;BME280;41249;47.838;16.490;2022-08-21T14:03:35;98822.22;;;17.22;100.00
55373;BME280;41249;47.838;16.490;2022-08-21T14:06:15;98815.59;;;17.36;100.00
55373;BME280;41249;47.838;16.490;2022-08-21T14:08:49;98824.59;;;17.42;100.00
55373;BME280;41249;47.838;16.490;2022-08-21T14:11:17;98837.16;;;17.29;100.00
55373;BME280;41249;47.838;16.490;2022-08-21T14:13:48;98842.19;;;17.26;100.00